Curtin, Australia
Current Conditions -  °F | °C
As of 6:30 AM on Monday 22 Dec 2014 (Local Time) from YCIN Reporting Station
Scattered Clouds Scattered Clouds  
Wind Chill: 79°   Ceiling: Unl
Heat Index: 82°   Visibility: NA
Dew Point: 75°   Wind: 7mph
Humidity: 89%   Direction: 80°E
Pressure: 29.77"   Gusts: NA
Location:  17.58°S, 123.83°E
Report Text: YCIN 212230Z AUTO 08006KT //// // SCT060 26/24 Q1008
Loading
Personal Weather Stations






























Interactive Weather Map New forecast layout! Learn more

10-Day Weather Forecast

Advertisements
Track Severe Weather on mobile